Mi-jo II — WDA7765 — position and weather

sailwx.info

Track history (hours):
 
Tides and Currents Weather Stations Pressure Air Temp Water Temp Dewpoint Dewpoint Depression Visibility Wind Speed Wind Dir Waves Ship Positions

Mi-jo II

Owner: Scardigno, Michael J, Leonardo, NJ. More information available from US FCC via Universal Licensing System and Coast Guard Vessel Documentation Center.

Last reported at 2017-Nov-16 18:13 UTC. Time now 2017-Nov-22 20:33 UTC.
Position N 40°29' W 074°03'.

Length 20 m.

Type: Fishing. MMSI: 366846920.

Date/timePositionNaut miles runAvg speedWind from/ knotsBaromVisibWave heightAir tempDewpointWater temp
2017-Nov-16 18:13N 40°29' W 074°03'1 3.8
2017-Nov-16 17:51N 40°30' W 074°02'2 6.8
2017-Nov-16 17:30N 40°29' W 073°60'1 0.0
2017-Nov-15 18:41N 40°29' W 074°01'0 1.2
2017-Nov-15 18:20N 40°29' W 074°01'0 0.8
2017-Nov-15 17:45N 40°29' W 074°00'0 1.8
2017-Nov-15 17:30N 40°29' W 074°01'0 0.2
2017-Nov-15 16:57N 40°29' W 074°01'2 3.6
2017-Nov-15 16:21N 40°31' W 073°59'2 5.9
2017-Nov-15 15:59N 40°29' W 074°01'2 3.9
2017-Nov-15 15:27N 40°28' W 074°03'3 5.8
2017-Nov-15 14:59N 40°29' W 073°60'1 2.2
2017-Nov-15 14:30N 40°29' W 074°01'1 1.0
2017-Nov-15 13:58N 40°29' W 074°01'0 0.8
2017-Nov-15 13:19N 40°29' W 073°60'1 2.8
2017-Nov-15 12:57N 40°30' W 073°60'  
2017-Nov-12 18:27N 40°31' W 074°01'1 2.5
2017-Nov-12 17:55N 40°32' W 074°01'1 2.6
2017-Nov-12 17:25N 40°33' W 074°02'1 1.9
2017-Nov-12 17:00N 40°33' W 074°01'1 1.4
2017-Nov-12 16:30N 40°32' W 074°01'0 0.4
2017-Nov-12 15:47N 40°32' W 074°00'0 1.3
2017-Nov-12 15:30N 40°32' W 074°01'1 1.0
2017-Nov-12 14:59N 40°32' W 074°01'2 4.0
2017-Nov-12 14:30N 40°31' W 073°59'2 2.2
2017-Nov-12 13:30N 40°30' W 073°57'1 1.1
2017-Nov-12 12:57N 40°30' W 073°58'  
2017-Nov-09 18:43N 40°29' W 074°01'1 2.6
2017-Nov-09 18:24N 40°29' W 073°60'1 0.0
2017-Nov-08 18:41N 40°29' W 074°01'1 2.4
2017-Nov-08 18:20N 40°29' W 073°60'0 0.1
2017-Nov-08 17:57N 40°29' W 073°60'3 0.6
2017-Nov-08 13:28N 40°29' W 074°03'1 3.0
2017-Nov-08 13:00N 40°28' W 074°03'  
Track history (hours):
 
Tides and Currents Weather Stations Pressure Air Temp Water Temp Dewpoint Dewpoint Depression Visibility Wind Speed Wind Dir Waves Ship Positions

Mi-jo II

Owner: Scardigno, Michael J, Leonardo, NJ. More information available from US FCC via Universal Licensing System and Coast Guard Vessel Documentation Center.

Last reported at 2017-Nov-16 18:13 UTC. Time now 2017-Nov-22 20:33 UTC.
Position N 40°29' W 074°03'.

Length 20 m.

Type: Fishing. MMSI: 366846920.

Date/timePositionNaut miles runAvg speedWind from/ knotsBaromVisibWave heightAir tempDewpointWater temp
2017-Nov-16 18:13N 40°29' W 074°03'1 3.8
2017-Nov-16 17:51N 40°30' W 074°02'2 6.8
2017-Nov-16 17:30N 40°29' W 073°60'1 0.0
2017-Nov-15 18:41N 40°29' W 074°01'0 1.2
2017-Nov-15 18:20N 40°29' W 074°01'0 0.8
2017-Nov-15 17:45N 40°29' W 074°00'0 1.8
2017-Nov-15 17:30N 40°29' W 074°01'0 0.2
2017-Nov-15 16:57N 40°29' W 074°01'2 3.6
2017-Nov-15 16:21N 40°31' W 073°59'2 5.9
2017-Nov-15 15:59N 40°29' W 074°01'2 3.9
2017-Nov-15 15:27N 40°28' W 074°03'3 5.8
2017-Nov-15 14:59N 40°29' W 073°60'1 2.2
2017-Nov-15 14:30N 40°29' W 074°01'1 1.0
2017-Nov-15 13:58N 40°29' W 074°01'0 0.8
2017-Nov-15 13:19N 40°29' W 073°60'1 2.8
2017-Nov-15 12:57N 40°30' W 073°60'  
2017-Nov-12 18:27N 40°31' W 074°01'1 2.5
2017-Nov-12 17:55N 40°32' W 074°01'1 2.6
2017-Nov-12 17:25N 40°33' W 074°02'1 1.9
2017-Nov-12 17:00N 40°33' W 074°01'1 1.4
2017-Nov-12 16:30N 40°32' W 074°01'0 0.4
2017-Nov-12 15:47N 40°32' W 074°00'0 1.3
2017-Nov-12 15:30N 40°32' W 074°01'1 1.0
2017-Nov-12 14:59N 40°32' W 074°01'2 4.0
2017-Nov-12 14:30N 40°31' W 073°59'2 2.2
2017-Nov-12 13:30N 40°30' W 073°57'1 1.1
2017-Nov-12 12:57N 40°30' W 073°58'  
2017-Nov-09 18:43N 40°29' W 074°01'1 2.6
2017-Nov-09 18:24N 40°29' W 073°60'1 0.0
2017-Nov-08 18:41N 40°29' W 074°01'1 2.4
2017-Nov-08 18:20N 40°29' W 073°60'0 0.1
2017-Nov-08 17:57N 40°29' W 073°60'3 0.6
2017-Nov-08 13:28N 40°29' W 074°03'1 3.0
2017-Nov-08 13:00N 40°28' W 074°03'  

Dump ship's entire track history